createdAt,value
2023-12-18T00:00:42.888Z,61.70
2023-12-18T00:03:31.399Z,66.00
2023-12-18T00:05:59.974Z,70.60
2023-12-18T00:08:28.469Z,65.60
2023-12-18T00:10:56.639Z,80.40
2023-12-18T00:13:25.256Z,85.50
2023-12-18T00:15:53.858Z,77.60
2023-12-18T00:18:22.066Z,73.70
2023-12-18T00:20:51.981Z,72.80
2023-12-18T00:23:20.294Z,62.00
2023-12-18T00:25:48.475Z,80.10
2023-12-18T00:28:16.658Z,65.00
2023-12-18T00:30:45.144Z,66.20
2023-12-18T00:33:14.027Z,61.70
2023-12-18T00:35:42.434Z,78.40
2023-12-18T00:38:10.800Z,70.60
2023-12-18T00:40:39.083Z,65.90
2023-12-18T00:43:07.307Z,54.50
2023-12-18T00:45:35.529Z,63.00
2023-12-18T00:48:04.316Z,71.10
2023-12-18T00:50:32.773Z,63.20
2023-12-18T00:53:00.928Z,80.70
2023-12-18T00:55:29.152Z,56.80
2023-12-18T00:57:57.372Z,61.70
2023-12-18T01:00:25.569Z,61.70
2023-12-18T01:02:53.903Z,61.20
2023-12-18T01:05:22.055Z,67.70
2023-12-18T01:07:50.280Z,59.80
2023-12-18T01:10:18.462Z,62.30
2023-12-18T01:12:46.711Z,63.10
2023-12-18T01:15:15.167Z,53.10
2023-12-18T01:17:43.675Z,48.20
2023-12-18T01:20:12.207Z,55.60
2023-12-18T01:22:41.037Z,63.50
2023-12-18T01:25:10.544Z,53.30
2023-12-18T01:27:38.870Z,52.20
2023-12-18T01:30:07.902Z,62.50
2023-12-18T01:32:36.311Z,65.20
2023-12-18T01:35:05.409Z,53.70
2023-12-18T01:37:33.841Z,53.20
2023-12-18T01:40:02.256Z,50.70
2023-12-18T01:42:30.672Z,60.50
2023-12-18T01:44:58.882Z,70.60
2023-12-18T01:47:27.073Z,57.00
2023-12-18T01:49:55.358Z,52.60
2023-12-18T01:52:23.808Z,51.90
2023-12-18T01:54:52.640Z,55.00
2023-12-18T01:57:21.450Z,49.90
2023-12-18T01:59:51.929Z,52.60
2023-12-18T02:02:20.628Z,46.10
2023-12-18T02:04:48.887Z,58.10
2023-12-18T02:07:17.082Z,46.40
2023-12-18T02:09:45.908Z,56.70
2023-12-18T02:12:14.581Z,65.30
2023-12-18T02:14:42.974Z,63.60
2023-12-18T02:17:11.565Z,53.80
2023-12-18T02:19:39.867Z,49.50
2023-12-18T02:22:08.173Z,55.00
2023-12-18T02:24:36.492Z,73.50
2023-12-18T02:27:05.483Z,62.00
2023-12-18T02:29:33.861Z,58.90
2023-12-18T02:32:02.177Z,57.50
2023-12-18T02:34:34.654Z,66.90
2023-12-18T02:37:03.587Z,62.90
2023-12-18T02:39:31.850Z,65.20
2023-12-18T02:42:00.138Z,61.60
2023-12-18T02:44:28.413Z,62.50
2023-12-18T02:46:56.704Z,59.20
2023-12-18T02:49:25.100Z,52.10
2023-12-18T02:51:53.349Z,57.80
2023-12-18T02:54:21.538Z,50.10
2023-12-18T02:56:49.688Z,58.80
2023-12-18T02:59:17.905Z,70.80
2023-12-18T03:01:46.015Z,58.00
2023-12-18T03:04:14.320Z,59.20
2023-12-18T03:06:42.524Z,57.50
2023-12-18T03:09:10.799Z,54.60
2023-12-18T03:11:40.741Z,75.10
2023-12-18T03:14:10.309Z,52.10
2023-12-18T03:16:38.938Z,81.10
2023-12-18T03:19:07.722Z,59.10
2023-12-18T03:21:36.336Z,51.30
2023-12-18T03:24:05.006Z,57.40
2023-12-18T03:26:33.224Z,62.80
2023-12-18T03:29:01.485Z,53.10
2023-12-18T03:31:29.665Z,54.00
2023-12-18T03:33:58.373Z,52.20
2023-12-18T03:36:26.688Z,64.40
2023-12-18T03:38:54.900Z,53.00
2023-12-18T03:41:23.316Z,53.30
2023-12-18T03:43:52.305Z,82.40
2023-12-18T03:46:20.656Z,67.20
2023-12-18T03:48:49.025Z,50.70
2023-12-18T03:51:17.425Z,44.50
2023-12-18T03:53:45.617Z,58.00
2023-12-18T03:56:13.703Z,55.40
2023-12-18T03:58:41.996Z,57.40
2023-12-18T04:01:10.565Z,47.70
2023-12-18T04:03:39.119Z,56.30
2023-12-18T04:06:11.003Z,57.60
2023-12-18T04:08:40.636Z,43.40
2023-12-18T04:11:18.315Z,53.70
2023-12-18T04:13:46.502Z,61.80
2023-12-18T04:16:15.064Z,64.10
2023-12-18T04:18:44.158Z,70.10
2023-12-18T04:21:12.590Z,46.20
2023-12-18T04:23:40.826Z,69.80
2023-12-18T04:26:10.442Z,58.80
2023-12-18T04:28:38.667Z,46.60
2023-12-18T04:31:07.600Z,42.30
2023-12-18T04:33:40.350Z,46.60
2023-12-18T04:36:08.948Z,54.60
2023-12-18T04:38:37.243Z,55.40
2023-12-18T04:41:05.653Z,58.00
2023-12-18T04:43:34.382Z,69.70
2023-12-18T04:46:02.792Z,54.20
2023-12-18T04:48:31.086Z,51.30
2023-12-18T04:50:59.392Z,62.80
2023-12-18T04:53:27.833Z,52.30
2023-12-18T04:55:56.536Z,54.30
2023-12-18T04:58:25.100Z,52.70
2023-12-18T05:00:53.470Z,45.80
2023-12-18T05:03:22.085Z,56.20
2023-12-18T05:05:50.805Z,54.80
2023-12-18T05:08:19.041Z,52.50
2023-12-18T05:10:47.189Z,48.60
2023-12-18T05:13:15.444Z,57.10
2023-12-18T05:15:43.761Z,49.10
2023-12-18T05:18:12.416Z,45.70
2023-12-18T05:20:40.796Z,48.00
2023-12-18T05:23:08.923Z,51.10
2023-12-18T05:25:37.192Z,48.20
2023-12-18T05:28:05.580Z,55.90
2023-12-18T05:30:35.585Z,55.70
2023-12-18T05:33:04.570Z,45.10
2023-12-18T05:35:32.821Z,47.20
2023-12-18T05:38:01.038Z,44.10
2023-12-18T05:40:29.207Z,39.90
2023-12-18T05:42:57.478Z,60.50
2023-12-18T05:45:25.926Z,43.20
2023-12-18T05:47:54.323Z,41.70
2023-12-18T05:50:22.629Z,42.20
2023-12-18T05:52:51.114Z,42.60
2023-12-18T05:55:19.254Z,36.50
2023-12-18T05:57:47.647Z,39.20
2023-12-18T06:00:16.591Z,40.20
2023-12-18T06:02:45.017Z,34.80
2023-12-18T06:05:13.819Z,39.30
2023-12-18T06:07:42.316Z,36.60
2023-12-18T06:10:11.103Z,33.90
2023-12-18T06:12:39.568Z,33.40
2023-12-18T06:15:09.449Z,38.80
2023-12-18T06:17:37.841Z,38.50
2023-12-18T06:20:07.016Z,39.30
2023-12-18T06:25:04.860Z,31.60
2023-12-18T06:30:01.451Z,41.50
2023-12-18T06:32:29.860Z,34.50
2023-12-18T06:34:58.454Z,39.10
2023-12-18T06:37:28.688Z,39.00
2023-12-18T06:39:58.339Z,36.70
2023-12-18T06:42:26.716Z,42.30
2023-12-18T06:44:54.808Z,45.40
2023-12-18T06:47:22.938Z,36.40
2023-12-18T06:49:51.365Z,44.40
2023-12-18T06:52:19.529Z,40.10
2023-12-18T06:54:47.648Z,48.50
2023-12-18T06:57:17.450Z,41.10
2023-12-18T06:59:46.221Z,42.50
2023-12-18T07:02:14.420Z,42.00
2023-12-18T07:04:43.297Z,45.20
2023-12-18T07:07:14.014Z,45.50
2023-12-18T07:09:42.263Z,46.50
2023-12-18T07:12:10.585Z,41.20
2023-12-18T07:14:40.223Z,38.10
2023-12-18T07:17:08.531Z,38.10
2023-12-18T07:19:41.216Z,39.10
2023-12-18T07:22:10.377Z,36.60
2023-12-18T07:24:38.789Z,46.30
2023-12-18T07:27:07.184Z,41.40
2023-12-18T07:29:35.735Z,41.10
2023-12-18T07:32:04.374Z,31.80
2023-12-18T07:34:32.812Z,40.40
2023-12-18T07:37:01.217Z,41.70
2023-12-18T07:39:29.556Z,44.10
2023-12-18T07:41:57.801Z,36.60
2023-12-18T07:44:26.077Z,39.10
2023-12-18T07:46:54.669Z,33.60
2023-12-18T07:49:23.952Z,40.70
2023-12-18T07:54:20.700Z,40.20
2023-12-18T07:56:49.152Z,40.40
2023-12-18T07:59:18.782Z,42.80
2023-12-18T08:01:47.778Z,42.80
2023-12-18T08:04:16.254Z,43.10
2023-12-18T08:06:44.688Z,43.10
2023-12-18T08:09:13.549Z,38.00
2023-12-18T08:11:41.687Z,41.80
2023-12-18T08:14:10.588Z,36.80
2023-12-18T08:16:38.736Z,46.30
2023-12-18T08:19:07.195Z,36.10
2023-12-18T08:21:36.340Z,38.60
2023-12-18T08:24:04.762Z,47.20
2023-12-18T08:26:33.078Z,34.80
2023-12-18T08:29:02.029Z,42.10
2023-12-18T08:31:30.328Z,37.70
2023-12-18T08:33:58.625Z,35.30
2023-12-18T08:36:26.927Z,35.60
2023-12-18T08:38:55.166Z,37.10
2023-12-18T08:41:23.371Z,39.40
2023-12-18T08:43:58.659Z,48.30
2023-12-18T08:46:33.901Z,30.40
2023-12-18T08:49:02.233Z,34.90
2023-12-18T08:51:30.761Z,39.20
2023-12-18T08:53:59.216Z,36.20
2023-12-18T08:56:27.475Z,35.20
2023-12-18T08:58:57.249Z,29.90
2023-12-18T09:01:25.651Z,30.00
2023-12-18T09:06:23.490Z,35.00
2023-12-18T09:08:52.025Z,33.30
2023-12-18T09:11:22.526Z,29.80
2023-12-18T09:13:51.735Z,29.20
2023-12-18T09:16:19.934Z,30.50
2023-12-18T09:18:48.164Z,29.70
2023-12-18T09:21:16.796Z,34.20
2023-12-18T09:23:46.740Z,28.80
2023-12-18T09:26:16.264Z,30.40
2023-12-18T09:28:44.654Z,33.60
2023-12-18T09:31:13.035Z,32.50
2023-12-18T09:33:41.769Z,27.70
2023-12-18T09:36:10.275Z,37.10
2023-12-18T09:38:39.790Z,33.10
2023-12-18T09:41:09.651Z,34.90
2023-12-18T09:43:38.121Z,36.30
2023-12-18T09:46:09.523Z,29.70
2023-12-18T09:48:37.827Z,30.30
2023-12-18T09:51:13.099Z,27.70
2023-12-18T09:53:41.369Z,30.80
2023-12-18T09:56:11.799Z,29.10
2023-12-18T09:58:42.037Z,26.70
2023-12-18T10:01:11.221Z,27.20
2023-12-18T10:03:39.910Z,29.60
2023-12-18T10:06:08.222Z,30.50
2023-12-18T10:08:37.055Z,38.00
2023-12-18T10:11:05.646Z,30.80
2023-12-18T10:13:36.357Z,30.00
2023-12-18T10:16:05.183Z,27.00
2023-12-18T10:18:34.004Z,32.80
2023-12-18T10:21:02.500Z,27.20
2023-12-18T10:23:36.505Z,30.80
2023-12-18T10:26:04.878Z,34.40
2023-12-18T10:28:33.846Z,31.40
2023-12-18T10:31:04.204Z,29.40
2023-12-18T10:33:33.036Z,28.70
2023-12-18T10:36:01.598Z,26.70
2023-12-18T10:38:33.178Z,34.70
2023-12-18T10:41:04.578Z,30.30
2023-12-18T10:43:36.657Z,26.30
2023-12-18T10:46:06.391Z,34.40
2023-12-18T10:48:35.798Z,26.40
2023-12-18T10:51:06.418Z,39.10
2023-12-18T10:53:38.405Z,32.10
2023-12-18T10:56:08.213Z,31.50
2023-12-18T10:58:39.316Z,37.60
2023-12-18T11:01:11.004Z,38.30
2023-12-18T11:03:40.670Z,40.60
2023-12-18T11:06:11.051Z,38.10
2023-12-18T11:08:39.411Z,35.30
2023-12-18T11:11:13.156Z,35.20
2023-12-18T11:14:09.438Z,31.10
2023-12-18T11:16:51.769Z,37.60
2023-12-18T11:20:17.199Z,30.30
2023-12-18T11:22:47.131Z,25.50
2023-12-18T11:25:18.100Z,30.30
2023-12-18T11:27:47.171Z,32.80
2023-12-18T11:33:09.487Z,28.50
2023-12-18T11:35:40.011Z,33.20
2023-12-18T11:38:10.788Z,33.20
2023-12-18T11:40:42.766Z,29.50
2023-12-18T11:43:12.925Z,26.00
2023-12-18T11:45:43.646Z,31.00
2023-12-18T11:48:19.733Z,25.50
2023-12-18T11:50:51.649Z,28.90
2023-12-18T11:53:31.779Z,26.10
2023-12-18T11:56:00.198Z,34.80
2023-12-18T11:58:28.688Z,26.20
2023-12-18T12:00:59.152Z,28.70
2023-12-18T12:03:27.735Z,33.00
2023-12-18T12:05:57.874Z,33.10
2023-12-18T12:08:26.110Z,29.40
2023-12-18T12:10:56.433Z,32.40
2023-12-18T12:13:28.645Z,40.40
2023-12-18T12:15:57.916Z,29.10
2023-12-18T12:18:28.302Z,33.20
2023-12-18T12:20:57.345Z,29.70
2023-12-18T12:23:26.855Z,30.30
2023-12-18T12:28:32.501Z,33.00
2023-12-18T12:31:01.577Z,28.00
2023-12-18T12:36:17.464Z,28.30
2023-12-18T12:38:45.795Z,29.70
2023-12-18T12:41:15.729Z,38.00
2023-12-18T12:43:45.860Z,29.80
2023-12-18T12:46:17.567Z,27.40
2023-12-18T12:48:49.916Z,26.80
2023-12-18T12:51:19.375Z,27.60
2023-12-18T12:53:50.896Z,31.30
2023-12-18T12:56:19.259Z,35.90
2023-12-18T12:58:47.526Z,31.40
2023-12-18T13:01:15.766Z,24.60
2023-12-18T13:03:44.412Z,29.30
2023-12-18T13:06:12.999Z,28.50
2023-12-18T13:08:41.466Z,26.80
2023-12-18T13:11:09.888Z,32.30
2023-12-18T13:13:38.463Z,33.20
2023-12-18T13:16:06.819Z,33.40
2023-12-18T13:18:35.450Z,27.80
2023-12-18T13:21:04.222Z,32.10
2023-12-18T13:23:32.401Z,32.00
2023-12-18T13:26:00.751Z,33.20
2023-12-18T13:28:29.015Z,31.20
2023-12-18T13:30:57.305Z,34.60
2023-12-18T13:33:25.773Z,30.80
2023-12-18T13:35:55.514Z,31.80
2023-12-18T13:38:24.315Z,27.80
2023-12-18T13:40:52.698Z,30.30
2023-12-18T13:43:21.126Z,26.30
2023-12-18T13:45:49.611Z,24.10
2023-12-18T13:48:18.241Z,31.10
2023-12-18T13:50:46.685Z,31.60
2023-12-18T13:53:15.394Z,33.60
2023-12-18T13:55:43.784Z,31.10
2023-12-18T13:58:12.260Z,34.00
2023-12-18T14:00:41.834Z,26.70
2023-12-18T14:03:10.474Z,41.30
2023-12-18T14:05:38.985Z,28.60
2023-12-18T14:08:07.412Z,32.90
2023-12-18T14:10:36.029Z,42.60
2023-12-18T14:13:04.693Z,34.10
2023-12-18T14:15:33.129Z,36.60
2023-12-18T14:18:01.335Z,35.40
2023-12-18T14:20:29.952Z,31.20
2023-12-18T14:22:58.393Z,44.30
2023-12-18T14:25:27.149Z,26.90
2023-12-18T14:27:55.580Z,29.70
2023-12-18T14:30:24.474Z,43.10
2023-12-18T14:32:52.826Z,38.10
2023-12-18T14:35:21.306Z,47.60
2023-12-18T14:37:49.706Z,32.70
2023-12-18T14:40:18.825Z,32.70
2023-12-18T14:42:48.417Z,36.50
2023-12-18T14:45:16.792Z,30.70
2023-12-18T14:47:45.053Z,37.50
2023-12-18T14:50:13.761Z,28.70
2023-12-18T14:52:42.785Z,31.30
2023-12-18T14:55:11.429Z,34.80
2023-12-18T14:57:40.237Z,34.20
2023-12-18T15:00:10.116Z,39.30
2023-12-18T15:02:38.597Z,41.60
2023-12-18T15:05:09.240Z,29.50
2023-12-18T15:07:37.414Z,28.70
2023-12-18T15:10:06.311Z,40.20
2023-12-18T15:12:34.548Z,31.60
2023-12-18T15:15:02.840Z,38.90
2023-12-18T15:17:31.349Z,36.90
2023-12-18T15:19:59.708Z,46.60
2023-12-18T15:22:27.931Z,55.20
2023-12-18T15:24:56.367Z,47.80
2023-12-18T15:27:24.657Z,62.40
2023-12-18T15:29:53.152Z,49.40
2023-12-18T15:32:21.744Z,47.00
2023-12-18T15:34:49.928Z,38.60
2023-12-18T15:37:18.127Z,42.40
2023-12-18T15:39:47.204Z,40.90
2023-12-18T15:42:15.612Z,35.00
2023-12-18T15:44:43.814Z,36.80
2023-12-18T15:47:12.055Z,39.60
2023-12-18T15:49:40.347Z,44.90
2023-12-18T15:52:09.180Z,40.70
2023-12-18T15:54:37.702Z,47.70
2023-12-18T15:57:06.185Z,39.80
2023-12-18T15:59:34.789Z,40.10
2023-12-18T16:02:03.230Z,48.90
2023-12-18T16:04:31.562Z,52.30
2023-12-18T16:07:00.695Z,58.80
2023-12-18T16:09:28.817Z,41.50
2023-12-18T16:11:57.289Z,55.70
2023-12-18T16:14:25.816Z,37.40
2023-12-18T16:16:54.166Z,33.30
2023-12-18T16:19:22.550Z,44.90
2023-12-18T16:21:51.058Z,35.60
2023-12-18T16:24:19.523Z,44.10
2023-12-18T16:26:48.464Z,54.80
2023-12-18T16:29:17.097Z,56.20
2023-12-18T16:31:46.534Z,47.20
2023-12-18T16:34:14.885Z,49.20
2023-12-18T16:36:43.327Z,50.50
2023-12-18T16:39:11.526Z,45.50
2023-12-18T16:41:43.083Z,37.40
2023-12-18T16:44:11.423Z,33.80
2023-12-18T16:46:44.863Z,39.40
2023-12-18T16:49:14.186Z,38.20
2023-12-18T16:51:42.826Z,43.00
2023-12-18T16:54:11.347Z,51.00
2023-12-18T16:56:39.434Z,52.70
2023-12-18T16:59:09.725Z,45.30
2023-12-18T17:01:38.036Z,48.60
2023-12-18T17:04:07.125Z,54.90
2023-12-18T17:06:35.498Z,47.20
2023-12-18T17:09:03.925Z,48.50
2023-12-18T17:11:34.633Z,47.90
2023-12-18T17:14:04.354Z,40.90
2023-12-18T17:16:32.807Z,59.80
2023-12-18T17:19:01.212Z,55.70
2023-12-18T17:21:29.579Z,50.50
2023-12-18T17:23:57.813Z,51.30
2023-12-18T17:26:28.685Z,49.60
2023-12-18T17:28:58.572Z,47.40
2023-12-18T17:31:30.962Z,47.80
2023-12-18T17:34:01.305Z,68.20
2023-12-18T17:36:31.245Z,65.60
2023-12-18T17:38:59.949Z,50.10
2023-12-18T17:41:28.431Z,49.90
2023-12-18T17:43:56.887Z,60.30
2023-12-18T17:46:25.004Z,55.50
2023-12-18T17:48:55.307Z,81.10
2023-12-18T17:51:23.855Z,47.70
2023-12-18T17:53:52.737Z,74.50
2023-12-18T17:56:21.607Z,60.80
2023-12-18T17:58:50.515Z,60.80
2023-12-18T18:01:18.820Z,61.50
2023-12-18T18:03:47.007Z,55.80
2023-12-18T18:06:17.649Z,56.60
2023-12-18T18:08:46.585Z,51.60
2023-12-18T18:11:14.863Z,55.10
2023-12-18T18:13:42.978Z,63.30
2023-12-18T18:16:12.311Z,65.50
2023-12-18T18:18:40.745Z,76.60
2023-12-18T18:21:09.417Z,63.30
2023-12-18T18:23:37.494Z,63.40
2023-12-18T18:26:05.684Z,70.70
2023-12-18T18:28:34.318Z,61.10
2023-12-18T18:31:04.670Z,63.80
2023-12-18T18:33:35.058Z,60.80
2023-12-18T18:36:03.564Z,70.00
2023-12-18T18:38:31.715Z,72.10
2023-12-18T18:41:00.013Z,76.50
2023-12-18T18:43:28.213Z,54.50
2023-12-18T18:45:56.759Z,62.00
2023-12-18T18:48:24.989Z,59.10
2023-12-18T18:50:53.301Z,66.60
2023-12-18T18:53:21.462Z,58.80
2023-12-18T18:55:49.628Z,68.50
2023-12-18T18:58:18.315Z,63.60
2023-12-18T19:00:50.315Z,70.20
2023-12-18T19:03:20.992Z,60.70
2023-12-18T19:05:50.179Z,59.80
2023-12-18T19:08:21.019Z,50.90
2023-12-18T19:10:49.537Z,48.50
2023-12-18T19:13:19.083Z,49.90
2023-12-18T19:15:48.434Z,50.90
2023-12-18T19:18:16.888Z,61.00
2023-12-18T19:20:47.093Z,50.30
2023-12-18T19:23:15.248Z,47.90
2023-12-18T19:25:45.628Z,54.90
2023-12-18T19:28:15.780Z,53.20
2023-12-18T19:30:45.091Z,69.60
2023-12-18T19:33:13.659Z,56.60
2023-12-18T19:35:43.798Z,67.60
2023-12-18T19:38:12.007Z,74.30
2023-12-18T19:40:41.148Z,71.90
2023-12-18T19:43:09.805Z,53.50
2023-12-18T19:45:38.429Z,55.70
2023-12-18T19:48:06.772Z,53.10
2023-12-18T19:50:38.315Z,56.20
2023-12-18T19:53:09.812Z,50.90
2023-12-18T19:55:39.402Z,44.80
2023-12-18T19:58:07.527Z,51.10
2023-12-18T20:00:35.706Z,51.50
2023-12-18T20:03:04.120Z,41.30
2023-12-18T20:05:32.713Z,39.80
2023-12-18T20:08:00.897Z,52.80
2023-12-18T20:10:29.063Z,40.90
2023-12-18T20:12:57.195Z,45.80
2023-12-18T20:15:25.408Z,41.90
2023-12-18T20:17:53.518Z,44.00
2023-12-18T20:20:21.960Z,43.60
2023-12-18T20:22:50.072Z,42.00
2023-12-18T20:25:18.278Z,53.90
2023-12-18T20:27:46.581Z,37.30
2023-12-18T20:30:15.357Z,38.10
2023-12-18T20:32:44.251Z,44.50
2023-12-18T20:35:12.722Z,44.30
2023-12-18T20:37:41.719Z,39.00
2023-12-18T20:40:11.755Z,33.70
2023-12-18T20:42:40.058Z,35.40
2023-12-18T20:45:08.639Z,23.60
2023-12-18T20:47:36.945Z,12.30
2023-12-18T20:50:06.336Z,14.30
2023-12-18T20:52:34.793Z,41.70
2023-12-18T20:55:07.459Z,46.00
2023-12-18T20:57:36.616Z,46.90
2023-12-18T21:00:18.659Z,33.20
2023-12-18T21:02:52.950Z,38.40
2023-12-18T21:05:21.719Z,56.30
2023-12-18T21:07:50.058Z,52.00
2023-12-18T21:10:18.402Z,55.80
2023-12-18T21:12:46.924Z,45.60
2023-12-18T21:15:15.874Z,46.70
2023-12-18T21:17:44.630Z,37.60
2023-12-18T21:20:12.987Z,43.40
2023-12-18T21:22:41.455Z,44.90
2023-12-18T21:25:12.505Z,51.50
2023-12-18T21:27:42.522Z,38.90
2023-12-18T21:30:13.722Z,37.20
2023-12-18T21:32:43.233Z,37.60
2023-12-18T21:35:11.767Z,33.50
2023-12-18T21:37:40.018Z,45.00
2023-12-18T21:40:09.160Z,36.80
2023-12-18T21:42:37.464Z,29.80
2023-12-18T21:45:06.395Z,34.70
2023-12-18T21:47:34.934Z,29.00
2023-12-18T21:50:03.826Z,35.70
2023-12-18T21:52:32.296Z,37.30
2023-12-18T21:55:00.653Z,38.70
2023-12-18T21:57:28.919Z,28.40
2023-12-18T21:59:57.251Z,34.80
2023-12-18T22:02:25.409Z,28.80
2023-12-18T22:04:53.895Z,33.20
2023-12-18T22:07:22.352Z,29.30
2023-12-18T22:09:50.622Z,25.30
2023-12-18T22:12:18.953Z,33.70
2023-12-18T22:14:47.337Z,29.20
2023-12-18T22:17:17.318Z,36.80
2023-12-18T22:19:45.994Z,43.40
2023-12-18T22:22:14.747Z,32.90
2023-12-18T22:24:43.079Z,43.50
2023-12-18T22:27:11.364Z,36.10
2023-12-18T22:29:39.603Z,33.00
2023-12-18T22:32:07.894Z,42.30
2023-12-18T22:34:36.282Z,34.60
2023-12-18T22:37:05.057Z,29.20
2023-12-18T22:39:33.522Z,33.90
2023-12-18T22:42:02.628Z,31.70
2023-12-18T22:44:30.755Z,38.40
2023-12-18T22:46:58.906Z,33.30
2023-12-18T22:49:27.519Z,34.70
2023-12-18T22:51:56.789Z,44.20
2023-12-18T22:54:25.312Z,40.20
2023-12-18T22:56:53.516Z,36.20
2023-12-18T22:59:21.718Z,37.10
2023-12-18T23:01:50.177Z,35.80
2023-12-18T23:04:18.486Z,35.60
2023-12-18T23:06:47.122Z,38.90
2023-12-18T23:09:15.698Z,36.50
2023-12-18T23:11:43.899Z,36.50
2023-12-18T23:14:12.295Z,31.00
2023-12-18T23:16:42.094Z,40.50
2023-12-18T23:19:10.544Z,36.70
2023-12-18T23:21:42.368Z,46.90
2023-12-18T23:24:10.633Z,36.10
2023-12-18T23:26:39.185Z,38.10
2023-12-18T23:29:09.688Z,40.20
2023-12-18T23:31:39.125Z,40.30
2023-12-18T23:34:07.530Z,47.00
2023-12-18T23:36:36.311Z,38.70
2023-12-18T23:39:06.878Z,40.60
2023-12-18T23:41:35.085Z,37.30
2023-12-18T23:44:03.433Z,36.70
2023-12-18T23:46:32.981Z,39.00
2023-12-18T23:49:01.358Z,42.10
2023-12-18T23:51:29.468Z,42.20
2023-12-18T23:53:58.849Z,38.20
2023-12-18T23:56:26.917Z,43.90
2023-12-18T23:58:55.193Z,44.20
